Time;durP1;ratioP1;P1;durP2;ratioP2;P2;SDS_P1;SDS_P2;PMS_P1;PMS_P2;Temp;Humidity;BMP_temperature;BMP_pressure;BME280_temperature;BME280_humidity;BME280_pressure;Samples;Min_cycle;Max_cycle;Signal;HPM_P1;HPM_P2
2024/04/14 00:00:21;;;;;;;23.85;21.83;;;18.00;99.90;;;;;;5402327;26;21498;-74
2024/04/14 00:02:52;;;;;;;23.85;21.65;;;18.00;99.90;;;;;;5401125;26;20066;-75
2024/04/14 00:05:34;;;;;;;24.33;22.27;;;17.90;99.90;;;;;;5409774;26;20011;-73
2024/04/14 00:08:06;;;;;;;23.60;21.83;;;17.90;99.90;;;;;;5403106;26;20000;-74
2024/04/14 00:10:45;;;;;;;23.73;21.83;;;17.90;99.90;;;;;;5407771;26;20002;-74
2024/04/14 00:13:15;;;;;;;23.65;21.95;;;18.00;99.90;;;;;;5448060;26;20058;-76
2024/04/14 00:15:43;;;;;;;25.10;22.73;;;17.90;99.90;;;;;;5400881;26;20126;-75
2024/04/14 00:18:12;;;;;;;25.00;22.70;;;17.90;99.90;;;;;;5407627;26;20156;-74
2024/04/14 00:20:49;;;;;;;25.13;23.00;;;17.90;99.90;;;;;;5368391;26;20023;-76
2024/04/14 00:23:30;;;;;;;24.27;22.27;;;17.90;99.90;;;;;;5406210;26;20003;-74
2024/04/14 00:26:11;;;;;;;;;;;;;;;;;;;;;
2024/04/14 00:29:55;;;;;;;24.02;22.00;;;17.80;99.90;;;;;;5317265;26;20023;-74
2024/04/14 00:32:28;;;;;;;24.38;22.30;;;17.70;99.90;;;;;;5371149;26;20011;-76
2024/04/14 00:35:02;;;;;;;25.05;22.77;;;17.70;99.90;;;;;;5401826;26;19999;-74
2024/04/14 00:37:33;;;;;;;24.40;22.20;;;17.60;99.90;;;;;;5396683;26;20003;-76
2024/04/14 00:40:05;;;;;;;23.98;22.00;;;17.50;99.90;;;;;;5401378;26;20355;-76
2024/04/14 00:42:36;;;;;;;24.38;22.33;;;17.50;99.90;;;;;;5395507;26;20103;-77
2024/04/14 00:45:08;;;;;;;24.70;22.45;;;17.40;99.90;;;;;;5373052;26;20003;-75
2024/04/14 00:47:39;;;;;;;24.23;22.42;;;17.30;99.90;;;;;;5401112;26;20011;-76
2024/04/14 00:50:10;;;;;;;24.63;22.50;;;17.20;99.90;;;;;;5400405;26;20042;-75
2024/04/14 00:53:04;;;;;;;24.13;22.05;;;17.10;99.90;;;;;;5377208;26;20007;-75
2024/04/14 00:55:40;;;;;;;24.77;22.77;;;16.90;99.90;;;;;;5405245;26;20003;-75
2024/04/14 00:58:45;;;;;;;25.17;23.13;;;16.90;99.90;;;;;;5414722;26;20015;-76
2024/04/14 01:01:42;;;;;;;24.23;22.33;;;16.70;99.90;;;;;;5377477;26;20003;-77
2024/04/14 01:04:16;;;;;;;23.77;21.92;;;16.60;99.90;;;;;;5373139;26;20000;-74
2024/04/14 01:06:46;;;;;;;24.08;22.30;;;16.50;99.90;;;;;;5354549;26;20004;-75
2024/04/14 01:09:16;;;;;;;25.33;23.27;;;16.50;99.90;;;;;;5364811;26;20066;-74
2024/04/14 01:11:48;;;;;;;24.35;22.65;;;16.40;99.90;;;;;;5415291;26;20066;-76
2024/04/14 01:14:20;;;;;;;25.33;23.05;;;16.20;99.90;;;;;;5371484;26;20012;-79
2024/04/14 01:16:51;;;;;;;24.85;22.75;;;16.10;99.90;;;;;;5362080;26;20016;-76
2024/04/14 01:19:32;;;;;;;24.20;22.45;;;16.00;99.90;;;;;;5338743;26;20008;-78
2024/04/14 01:22:04;;;;;;;24.07;22.27;;;15.80;99.90;;;;;;5341421;26;20011;-77
2024/04/14 01:24:35;;;;;;;25.02;23.00;;;15.80;99.90;;;;;;5356200;26;20064;-76
2024/04/14 01:27:10;;;;;;;24.83;22.80;;;15.70;99.90;;;;;;5361790;26;19996;-78
2024/04/14 01:29:45;;;;;;;25.88;23.30;;;15.60;99.90;;;;;;5348354;26;20019;-75
2024/04/14 01:32:18;;;;;;;25.13;22.80;;;15.50;99.90;;;;;;5349615;26;20011;-76
2024/04/14 01:34:48;;;;;;;24.08;22.27;;;15.40;99.90;;;;;;5393289;26;20005;-76
2024/04/14 01:37:22;;;;;;;24.92;22.88;;;15.30;99.90;;;;;;5382352;26;20072;-74
2024/04/14 01:40:13;;;;;;;24.80;23.00;;;15.20;99.90;;;;;;5398436;26;20224;-77
2024/04/14 01:42:44;;;;;;;24.23;22.57;;;15.10;99.90;;;;;;5395709;26;20000;-76
2024/04/14 01:45:27;;;;;;;24.50;22.80;;;15.00;99.90;;;;;;5373729;26;20015;-75
2024/04/14 01:48:04;;;;;;;24.65;22.75;;;14.90;99.90;;;;;;5415621;26;20070;-76
2024/04/14 01:50:52;;;;;;;24.13;22.13;;;14.90;99.90;;;;;;5441327;26;20658;-74
2024/04/14 01:53:20;;;;;;;25.33;23.25;;;14.80;99.90;;;;;;5366822;26;19996;-74
2024/04/14 01:56:07;;;;;;;25.33;23.10;;;14.80;99.90;;;;;;5370278;26;19999;-75
2024/04/14 01:58:54;;;;;;;;;;;14.70;99.90;;;;;;5400809;26;20015;-76
2024/04/14 02:01:35;;;;;;;25.08;22.95;;;14.60;99.90;;;;;;5393865;26;19932;-74
2024/04/14 02:04:15;;;;;;;24.15;22.33;;;14.60;99.90;;;;;;5362577;26;20011;-72
2024/04/14 02:06:49;;;;;;;25.10;23.05;;;14.50;99.90;;;;;;5391522;26;20045;-76
2024/04/14 02:09:22;;;;;;;25.17;22.75;;;14.40;99.90;;;;;;5393280;26;20409;-77
2024/04/14 02:18:23;;;;;;;24.42;22.48;;;14.20;99.90;;;;;;5339047;26;19996;-75
2024/04/14 02:21:40;;;;;;;24.02;22.02;;;14.10;99.90;;;;;;5360699;26;20909;-78
2024/04/14 02:24:09;;;;;;;23.98;22.25;;;14.10;99.90;;;;;;5233277;26;20389;-73
2024/04/14 02:26:45;;;;;;;24.45;22.30;;;14.00;99.90;;;;;;5367693;26;20012;-73
2024/04/14 02:29:12;;;;;;;23.98;22.02;;;13.90;99.90;;;;;;5364933;26;20028;-74
2024/04/14 02:32:11;;;;;;;24.85;22.95;;;13.90;99.90;;;;;;5368703;26;20011;-74
2024/04/14 02:34:43;;;;;;;23.10;21.55;;;13.70;99.90;;;;;;5368230;26;20020;-74
2024/04/14 02:37:15;;;;;;;23.67;21.77;;;13.70;99.90;;;;;;5353050;26;20000;-74
2024/04/14 02:39:43;;;;;;;24.17;22.08;;;13.60;99.90;;;;;;5359524;26;20004;-73
2024/04/14 02:42:20;;;;;;;23.88;21.98;;;13.50;99.90;;;;;;5365989;26;20000;-75
2024/04/14 02:44:58;;;;;;;24.15;22.08;;;13.50;99.90;;;;;;5364778;26;20023;-73
2024/04/14 02:47:41;;;;;;;24.20;22.30;;;13.40;99.90;;;;;;5322956;26;20013;-73
2024/04/14 02:50:20;;;;;;;24.38;22.15;;;13.30;99.90;;;;;;5333184;26;20000;-73
2024/04/14 02:53:02;;;;;;;25.10;22.63;;;13.30;99.90;;;;;;5367799;26;20012;-74
2024/04/14 02:56:11;;;;;;;24.40;22.27;;;13.20;99.90;;;;;;5365297;26;19996;-74
2024/04/14 02:59:06;;;;;;;24.05;22.00;;;13.20;99.90;;;;;;5373736;26;20012;-74
2024/04/14 03:01:38;;;;;;;24.90;22.50;;;13.10;99.90;;;;;;5336985;26;20308;-75
2024/04/14 03:04:10;;;;;;;24.15;22.35;;;13.10;99.90;;;;;;5369969;26;20007;-75
2024/04/14 03:06:41;;;;;;;23.73;21.92;;;13.00;99.90;;;;;;5377322;26;20000;-73
2024/04/14 03:09:22;;;;;;;24.42;22.52;;;13.00;99.90;;;;;;5376001;26;19999;-74
2024/04/14 03:11:51;;;;;;;24.52;22.45;;;13.00;99.90;;;;;;5435608;26;20058;-73
2024/04/14 03:14:19;;;;;;;24.52;22.55;;;12.90;99.90;;;;;;5400011;26;20011;-73
2024/04/14 03:17:17;;;;;;;24.90;22.60;;;12.90;99.90;;;;;;5406656;26;20018;-75
2024/04/14 03:20:01;;;;;;;24.73;22.55;;;12.80;99.90;;;;;;5409535;26;19999;-75
2024/04/14 03:22:51;;;;;;;25.42;22.95;;;12.80;99.90;;;;;;5406064;26;19999;-74
2024/04/14 03:25:19;;;;;;;25.60;23.58;;;12.80;99.90;;;;;;5398814;26;20004;-73
2024/04/14 03:28:03;;;;;;;24.13;22.10;;;12.80;99.90;;;;;;5374193;26;20015;-74
2024/04/14 03:30:53;;;;;;;24.33;22.42;;;12.80;99.90;;;;;;5377889;26;19995;-75
2024/04/14 03:33:22;;;;;;;24.00;21.98;;;12.80;99.90;;;;;;5400192;26;20014;-75
2024/04/14 03:35:59;;;;;;;26.75;22.35;;;12.80;99.90;;;;;;5405951;26;20010;-73
2024/04/14 03:38:37;;;;;;;23.92;21.80;;;12.80;99.90;;;;;;5407381;26;20006;-75
2024/04/14 03:41:11;;;;;;;22.95;21.25;;;12.90;99.90;;;;;;5369885;26;20448;-74
2024/04/14 03:43:45;;;;;;;22.75;20.90;;;13.00;99.90;;;;;;5336826;26;20011;-73
2024/04/14 03:46:54;;;;;;;24.30;22.20;;;13.00;99.90;;;;;;5397649;26;19995;-75
2024/04/14 03:49:29;;;;;;;23.52;21.27;;;13.00;99.90;;;;;;5395945;26;20006;-75
2024/04/14 03:52:00;;;;;;;23.13;21.13;;;13.10;99.90;;;;;;5399535;26;19996;-75
2024/04/14 03:54:59;;;;;;;22.88;21.23;;;13.00;99.90;;;;;;5392365;26;20030;-74
2024/04/14 03:57:32;;;;;;;23.98;21.67;;;13.10;99.90;;;;;;5395184;26;20049;-74
2024/04/14 04:00:06;;;;;;;23.70;21.55;;;13.10;99.90;;;;;;5388189;26;20004;-76
2024/04/14 04:02:45;;;;;;;24.05;21.80;;;13.00;99.90;;;;;;5396677;26;20010;-72
2024/04/14 04:05:14;;;;;;;23.95;21.63;;;13.10;99.90;;;;;;5437545;26;20042;-75
2024/04/14 04:07:50;;;;;;;24.50;22.35;;;13.00;99.90;;;;;;5409723;26;20023;-75
2024/04/14 04:14:36;;;;;;;24.17;21.60;;;13.00;99.90;;;;;;5458447;26;20013;-73
2024/04/14 04:17:13;;;;;;;23.35;21.40;;;13.00;99.90;;;;;;5391023;26;20014;-75
2024/04/14 04:19:45;;;;;;;23.52;21.20;;;13.00;99.90;;;;;;5404591;26;20315;-75
2024/04/14 04:22:18;;;;;;;23.42;21.50;;;12.90;99.90;;;;;;5402260;26;20010;-73
2024/04/14 04:24:45;;;;;;;23.45;21.38;;;12.90;99.90;;;;;;5404193;26;20741;-74
2024/04/14 04:27:26;;;;;;;22.55;20.65;;;13.00;99.90;;;;;;5374890;26;20006;-73
2024/04/14 04:30:11;;;;;;;;;;;12.90;99.90;;;;;;5400182;26;19999;-74
2024/04/14 04:33:24;;;;;;;23.40;21.35;;;12.90;99.90;;;;;;5359643;26;19931;-76
2024/04/14 04:36:06;;;;;;;23.33;21.33;;;12.90;99.90;;;;;;5397127;26;20011;-77
2024/04/14 04:38:53;;;;;;;23.75;21.55;;;12.90;99.90;;;;;;5338323;26;20022;-74
2024/04/14 04:41:43;;;;;;;24.65;22.15;;;12.90;99.90;;;;;;5369605;26;20003;-76
2024/04/14 04:44:12;;;;;;;25.40;22.85;;;12.90;99.90;;;;;;5363186;26;20001;-74
2024/04/14 04:50:04;;;;;;;24.73;22.42;;;12.80;99.90;;;;;;5432983;26;19999;-76
2024/04/14 04:52:32;;;;;;;23.65;21.58;;;12.80;99.90;;;;;;5394995;26;20019;-74
2024/04/14 04:55:07;;;;;;;25.25;22.75;;;12.80;99.90;;;;;;5397288;26;20010;-72
2024/04/14 04:57:46;;;;;;;25.48;22.92;;;12.70;99.90;;;;;;5394912;26;20070;-74
2024/04/14 05:00:58;;;;;;;24.85;21.27;;;12.70;99.90;;;;;;5388733;26;20643;-74
2024/04/14 05:03:28;;;;;;;24.27;21.70;;;12.70;99.90;;;;;;5426040;26;20011;-74
2024/04/14 05:06:17;;;;;;;23.15;21.27;;;12.70;99.90;;;;;;5396662;26;20003;-74
2024/04/14 05:08:58;;;;;;;23.65;21.40;;;12.70;99.90;;;;;;5366001;26;20007;-74
2024/04/14 05:11:45;;;;;;;21.80;20.00;;;12.60;99.90;;;;;;5359381;26;20040;-75
2024/04/14 05:14:28;;;;;;;25.70;23.40;;;12.60;99.90;;;;;;5367321;26;20016;-74
2024/04/14 05:16:59;;;;;;;32.63;30.20;;;12.60;99.90;;;;;;5410422;26;19998;-73
2024/04/14 05:19:30;;;;;;;33.60;31.17;;;12.60;99.90;;;;;;5398944;26;20018;-72
2024/04/14 05:22:02;;;;;;;34.72;32.00;;;12.70;99.90;;;;;;5395963;26;20010;-75
2024/04/14 05:24:33;;;;;;;33.67;31.10;;;12.60;99.90;;;;;;5399529;26;20053;-73
2024/04/14 05:27:16;;;;;;;31.60;29.20;;;12.60;99.90;;;;;;5369681;26;20004;-74
2024/04/14 05:30:09;;;;;;;31.98;29.25;;;12.60;99.90;;;;;;5360608;26;20032;-74
2024/04/14 05:33:03;;;;;;;29.70;27.27;;;12.60;99.90;;;;;;5397515;26;20008;-73
2024/04/14 05:35:38;;;;;;;30.27;27.58;;;12.60;99.90;;;;;;5395131;26;19995;-74
2024/04/14 05:38:48;;;;;;;;;;;;;;;;;;;;;
2024/04/14 05:41:49;;;;;;;30.90;28.55;;;12.60;99.90;;;;;;5416008;26;20038;-73
2024/04/14 05:44:47;;;;;;;29.67;27.13;;;12.70;99.90;;;;;;5395940;26;19999;-75
2024/04/14 05:47:30;;;;;;;31.08;28.33;;;12.70;99.90;;;;;;5399431;26;19995;-75
2024/04/14 05:50:08;;;;;;;32.35;29.55;;;12.70;99.90;;;;;;5395413;26;20071;-75
2024/04/14 05:52:35;;;;;;;32.50;29.95;;;12.70;99.90;;;;;;5336365;26;20057;-74
2024/04/14 05:55:07;;;;;;;30.15;27.83;;;12.70;99.90;;;;;;5359168;26;19995;-73
2024/04/14 05:57:44;;;;;;;31.98;29.15;;;12.60;99.90;;;;;;5420170;26;20585;-72
2024/04/14 06:00:42;;;;;;;33.15;30.38;;;12.70;99.90;;;;;;5361917;26;20009;-75
2024/04/14 06:03:10;;;;;;;32.25;29.75;;;12.70;99.90;;;;;;5340687;26;20000;-77
2024/04/14 06:05:39;;;;;;;32.72;29.92;;;12.70;99.90;;;;;;5379497;26;19996;-76
2024/04/14 06:08:57;;;;;;;32.97;30.23;;;12.70;99.90;;;;;;5403492;26;20020;-74
2024/04/14 06:11:37;;;;;;;30.70;28.05;;;12.90;99.90;;;;;;5389250;26;20026;-74
2024/04/14 06:14:34;;;;;;;32.65;29.70;;;12.90;99.90;;;;;;5420836;26;20045;-72
2024/04/14 06:17:07;;;;;;;32.53;29.55;;;12.90;99.90;;;;;;5429174;26;20011;-73
2024/04/14 06:20:09;;;;;;;33.00;29.95;;;12.90;99.90;;;;;;5413379;26;20003;-73
2024/04/14 06:22:46;;;;;;;32.05;29.65;;;12.80;99.90;;;;;;5408172;26;20015;-73
2024/04/14 06:25:16;;;;;;;32.00;29.58;;;12.90;99.90;;;;;;5362557;26;20305;-72
2024/04/14 06:31:15;;;;;;;31.42;28.90;;;13.00;99.90;;;;;;5427179;26;20007;-75
2024/04/14 06:33:43;;;;;;;32.08;28.85;;;13.00;99.90;;;;;;5399003;26;19999;-74
2024/04/14 06:36:16;;;;;;;31.10;28.75;;;13.00;99.90;;;;;;5400786;26;20011;-73
2024/04/14 06:38:47;;;;;;;34.13;30.63;;;13.00;99.90;;;;;;5416592;26;20073;-72
2024/04/14 06:41:30;;;;;;;34.03;31.08;;;13.00;99.90;;;;;;5409672;26;20015;-72
2024/04/14 06:44:10;;;;;;;30.80;28.38;;;13.10;99.90;;;;;;5397891;26;20036;-75
2024/04/14 06:46:49;;;;;;;31.98;29.52;;;13.10;99.90;;;;;;5408768;26;20014;-74
2024/04/14 06:49:30;;;;;;;31.63;29.00;;;13.10;99.90;;;;;;5415425;26;20007;-72
2024/04/14 06:52:08;;;;;;;33.00;30.15;;;13.10;99.90;;;;;;5376195;26;20028;-74
2024/04/14 06:54:42;;;;;;;32.22;29.48;;;13.00;99.90;;;;;;5409402;26;19994;-74
2024/04/14 06:57:19;;;;;;;31.42;28.98;;;13.10;99.90;;;;;;5413341;26;20017;-74
2024/04/14 06:59:50;;;;;;;31.83;29.48;;;13.10;99.90;;;;;;5402441;26;20014;-75
2024/04/14 07:02:18;;;;;;;32.22;29.58;;;12.90;99.90;;;;;;5395723;26;20003;-77
2024/04/14 07:04:46;;;;;;;31.17;28.88;;;12.80;99.90;;;;;;5376142;26;20003;-75
2024/04/14 07:07:14;;;;;;;32.50;29.92;;;12.90;99.90;;;;;;5405563;26;20011;-75
2024/04/14 07:09:45;;;;;;;33.63;30.95;;;12.90;99.90;;;;;;5376323;26;20004;-75
2024/04/14 07:12:13;;;;;;;31.10;28.73;;;12.90;99.90;;;;;;5364262;26;20053;-74
2024/04/14 07:14:45;;;;;;;30.77;28.33;;;12.90;99.90;;;;;;5406066;26;20019;-73
2024/04/14 07:17:16;;;;;;;30.15;27.70;;;12.90;99.90;;;;;;5409118;26;20059;-73
2024/04/14 07:19:45;;;;;;;30.73;28.27;;;13.10;99.90;;;;;;5456171;26;19999;-74
2024/04/14 07:22:16;;;;;;;32.10;29.42;;;13.20;99.90;;;;;;5404149;26;20054;-75
2024/04/14 07:24:45;;;;;;;32.35;29.48;;;13.30;99.90;;;;;;5395265;26;20011;-74
2024/04/14 07:27:35;;;;;;;31.85;28.83;;;13.60;99.90;;;;;;5400373;26;20024;-76
2024/04/14 07:30:39;;;;;;;31.20;28.35;;;13.80;99.90;;;;;;5415253;26;20001;-75
2024/04/14 07:33:10;;;;;;;30.90;28.48;;;13.80;99.90;;;;;;5387643;26;20006;-74
2024/04/14 07:35:43;;;;;;;34.47;31.90;;;14.10;99.90;;;;;;5378389;26;20341;-74
2024/04/14 07:38:19;;;;;;;31.00;28.63;;;14.00;99.90;;;;;;5401393;26;20007;-73
2024/04/14 07:40:55;;;;;;;31.13;28.85;;;14.00;99.90;;;;;;5408591;26;20470;-74
2024/04/14 07:43:24;;;;;;;31.27;28.90;;;14.10;99.90;;;;;;5406921;26;20011;-73
2024/04/14 07:45:55;;;;;;;31.17;28.63;;;14.10;99.90;;;;;;5371496;26;20011;-75
2024/04/14 07:48:24;;;;;;;31.05;28.80;;;14.10;99.90;;;;;;5418365;26;19995;-75
2024/04/14 07:51:00;;;;;;;31.95;29.60;;;14.20;99.90;;;;;;5373655;26;20069;-75
2024/04/14 07:53:31;;;;;;;32.10;29.17;;;14.20;99.90;;;;;;5397714;26;21202;-73
2024/04/14 07:56:00;;;;;;;35.22;32.70;;;14.40;99.90;;;;;;5336500;26;20011;-74
2024/04/14 07:58:35;;;;;;;33.22;30.50;;;14.50;99.90;;;;;;5369696;26;20004;-73
2024/04/14 08:01:05;;;;;;;32.20;29.70;;;14.50;99.90;;;;;;5387437;26;20018;-73
2024/04/14 08:03:34;;;;;;;41.03;38.42;;;14.80;99.90;;;;;;5389687;26;20003;-73
2024/04/14 08:06:31;;;;;;;40.53;37.85;;;15.00;99.90;;;;;;5428010;26;20016;-75
2024/04/14 08:08:58;;;;;;;45.25;42.03;;;15.10;99.90;;;;;;5407793;26;20900;-75
2024/04/14 08:11:30;;;;;;;34.10;31.38;;;14.70;99.90;;;;;;5382205;26;20475;-73
2024/04/14 08:14:00;;;;;;;42.45;39.15;;;14.80;99.90;;;;;;5380712;26;20008;-74
2024/04/14 08:16:35;;;;;;;43.10;40.10;;;14.90;99.90;;;;;;5380911;26;20621;-75
2024/04/14 08:19:09;;;;;;;42.35;39.92;;;14.90;99.90;;;;;;5379182;26;19999;-74
2024/04/14 08:21:37;;;;;;;38.20;35.63;;;14.50;99.90;;;;;;5399842;26;20184;-74
2024/04/14 08:24:08;;;;;;;40.75;38.00;;;14.30;99.90;;;;;;5369853;26;20566;-73
2024/04/14 08:26:36;;;;;;;42.65;39.85;;;14.10;99.90;;;;;;5369967;26;20065;-73
2024/04/14 08:29:07;;;;;;;41.83;38.92;;;14.00;99.90;;;;;;5364475;26;20020;-75
2024/04/14 08:31:44;;;;;;;42.38;39.60;;;13.90;99.90;;;;;;5362040;26;20071;-75
2024/04/14 08:34:27;;;;;;;41.22;38.90;;;14.00;99.90;;;;;;5418748;26;20063;-74
2024/04/14 08:36:57;;;;;;;42.67;40.28;;;14.00;99.90;;;;;;5345073;26;20014;-76
2024/04/14 08:39:27;;;;;;;40.80;38.22;;;14.00;99.90;;;;;;5356736;26;20015;-75
2024/04/14 08:41:57;;;;;;;33.05;30.65;;;13.80;99.90;;;;;;5363018;26;20014;-74
2024/04/14 08:44:26;;;;;;;35.35;32.80;;;13.80;99.90;;;;;;5336811;26;20044;-74
2024/04/14 08:46:56;;;;;;;32.80;30.20;;;14.00;99.90;;;;;;5357262;26;20008;-75
2024/04/14 08:49:25;;;;;;;31.73;29.13;;;14.20;99.90;;;;;;5370689;26;20000;-73
2024/04/14 08:52:04;;;;;;;36.10;33.60;;;14.40;99.90;;;;;;5370971;26;20000;-74
2024/04/14 08:54:38;;;;;;;36.92;34.72;;;14.50;99.90;;;;;;5349419;26;20016;-74
2024/04/14 08:57:10;;;;;;;41.83;39.17;;;14.60;99.90;;;;;;5358457;26;20015;-73
2024/04/14 08:59:41;;;;;;;41.75;39.13;;;14.70;99.90;;;;;;5357574;26;20059;-72
2024/04/14 09:02:17;;;;;;;44.13;41.47;;;14.60;99.90;;;;;;5353452;26;20026;-73
2024/04/14 09:05:15;;;;;;;46.83;44.13;;;14.60;99.90;;;;;;5360622;26;20015;-76
2024/04/14 09:07:44;;;;;;;42.35;39.90;;;14.40;99.90;;;;;;5360836;26;20007;-75
2024/04/14 09:10:47;;;;;;;50.72;47.67;;;14.30;99.90;;;;;;5355666;26;20539;-74
2024/04/14 09:13:51;;;;;;;50.35;47.58;;;14.90;99.90;;;;;;5384683;26;20083;-75
2024/04/14 09:16:21;;;;;;;52.20;49.05;;;15.30;99.90;;;;;;5354708;26;20004;-75
2024/04/14 09:19:02;;;;;;;52.47;49.15;;;15.50;99.90;;;;;;5405879;26;20077;-76
2024/04/14 09:21:45;;;;;;;40.65;38.10;;;15.50;99.90;;;;;;5362423;26;19995;-75
2024/04/14 09:24:42;;;;;;;43.53;40.78;;;15.70;99.90;;;;;;5359925;26;20016;-78
2024/04/14 09:27:13;;;;;;;41.22;38.67;;;15.80;99.90;;;;;;5343887;26;20048;-75
2024/04/14 09:29:43;;;;;;;41.03;38.65;;;15.70;99.90;;;;;;5350176;26;20023;-75
2024/04/14 09:32:17;;;;;;;41.50;38.95;;;15.50;99.90;;;;;;5319728;26;20016;-75
2024/04/14 09:35:21;;;;;;;47.80;44.70;;;15.40;99.90;;;;;;5359440;26;20012;-73
2024/04/14 09:38:14;;;;;;;48.58;45.50;;;15.20;99.90;;;;;;5380383;26;19999;-74
2024/04/14 09:40:45;;;;;;;42.80;40.08;;;15.60;99.90;;;;;;5352774;26;20024;-74
2024/04/14 09:43:44;;;;;;;53.40;50.10;;;16.00;99.90;;;;;;5412115;26;20004;-74
2024/04/14 09:46:15;;;;;;;53.92;50.42;;;16.10;99.90;;;;;;5341168;26;20016;-75
2024/04/14 09:48:45;;;;;;;53.83;50.33;;;16.00;99.90;;;;;;5364604;26;20015;-73
2024/04/14 09:51:22;;;;;;;45.60;42.83;;;15.90;99.90;;;;;;5362276;26;20012;-74
2024/04/14 09:54:17;;;;;;;50.38;47.50;;;16.20;99.90;;;;;;5368506;26;20004;-75
2024/04/14 09:57:31;;;;;;;44.03;41.33;;;16.10;99.90;;;;;;5395855;26;20048;-73
2024/04/14 10:00:01;;;;;;;47.75;44.83;;;16.10;99.90;;;;;;5393426;26;20007;-75
2024/04/14 10:03:03;;;;;;;53.80;50.80;;;15.90;99.90;;;;;;5382049;26;19999;-74
2024/04/14 10:05:37;;;;;;;45.85;43.33;;;16.00;99.90;;;;;;5400327;26;20015;-74
2024/04/14 10:08:13;;;;;;;51.35;48.17;;;16.00;99.90;;;;;;5373329;26;20010;-74
2024/04/14 10:10:45;;;;;;;49.88;47.08;;;16.30;99.90;;;;;;5419058;26;20010;-74
2024/04/14 10:13:20;;;;;;;51.80;48.92;;;16.30;99.90;;;;;;5367159;26;20460;-74
2024/04/14 10:16:02;;;;;;;53.10;50.05;;;15.90;99.90;;;;;;5392531;26;20059;-75
2024/04/14 10:18:38;;;;;;;54.20;51.05;;;16.00;99.90;;;;;;5333675;26;20016;-75
2024/04/14 10:21:06;;;;;;;50.05;47.08;;;16.20;99.90;;;;;;5368621;26;20004;-75
2024/04/14 10:27:03;;;;;;;43.00;40.25;;;16.20;99.90;;;;;;5369777;26;20004;-75
2024/04/14 10:30:00;;;;;;;44.00;41.00;;;16.00;99.90;;;;;;5359288;26;20058;-73
2024/04/14 10:32:30;;;;;;;51.38;48.58;;;15.60;99.90;;;;;;5370814;26;20012;-75
2024/04/14 10:35:45;;;;;;;49.13;46.40;;;15.30;99.90;;;;;;5355287;26;20019;-73
2024/04/14 10:38:44;;;;;;;47.58;44.95;;;15.40;99.90;;;;;;5448024;26;19996;-72
2024/04/14 10:41:20;;;;;;;54.22;51.22;;;15.80;99.90;;;;;;5427273;26;20598;-75
2024/04/14 10:44:23;;;;;;;52.00;48.83;;;16.20;99.90;;;;;;5425066;26;20068;-75
2024/04/14 10:47:07;;;;;;;53.38;50.35;;;16.00;99.90;;;;;;5418210;26;20003;-75
2024/04/14 10:50:03;;;;;;;45.08;42.45;;;15.90;99.90;;;;;;5330183;26;19995;-73
2024/04/14 10:52:31;;;;;;;;;;;15.70;99.90;;;;;;5388796;26;20004;-75
2024/04/14 10:54:58;;;;;;;45.15;42.30;;;15.40;99.90;;;;;;5391138;26;19955;-75
2024/04/14 10:57:25;;;;;;;49.97;46.78;;;15.20;99.90;;;;;;5341215;26;20018;-77
2024/04/14 10:59:53;;;;;;;54.53;51.08;;;15.20;99.90;;;;;;5372271;26;20059;-76
2024/04/14 11:02:21;;;;;;;53.05;50.05;;;15.30;99.90;;;;;;5367721;26;20000;-75
2024/04/14 11:04:48;;;;;;;53.17;49.67;;;15.50;99.90;;;;;;5388424;26;20003;-75
2024/04/14 11:07:16;;;;;;;54.92;51.80;;;15.90;99.90;;;;;;5385408;26;20007;-77
2024/04/14 11:09:43;;;;;;;54.42;51.33;;;16.00;99.90;;;;;;5351006;26;20757;-75
2024/04/14 11:12:10;;;;;;;52.22;49.33;;;16.40;99.90;;;;;;5374395;26;20007;-76
2024/04/14 11:14:37;;;;;;;46.55;43.95;;;16.10;99.90;;;;;;5370504;26;20014;-75
2024/04/14 11:17:11;;;;;;;58.45;54.90;;;16.20;99.90;;;;;;5384564;26;20009;-75
2024/04/14 11:19:39;;;;;;;45.38;42.35;;;15.80;99.90;;;;;;5366926;26;20024;-75
2024/04/14 11:22:16;;;;;;;42.97;40.45;;;16.10;99.90;;;;;;5379331;26;20063;-74
2024/04/14 11:24:44;;;;;;;46.22;43.63;;;15.90;99.90;;;;;;5378122;26;20039;-75
2024/04/14 11:27:12;;;;;;;47.30;44.58;;;15.90;99.90;;;;;;5389204;26;20030;-76
2024/04/14 11:29:39;;;;;;;47.28;44.55;;;15.70;99.90;;;;;;5375123;26;20421;-75
2024/04/14 11:32:28;;;;;;;48.70;45.90;;;15.70;99.90;;;;;;5382964;26;20014;-75
2024/04/14 11:34:57;;;;;;;47.85;44.90;;;15.70;99.90;;;;;;5382686;26;19999;-74
2024/04/14 11:37:27;;;;;;;49.38;46.38;;;15.70;99.90;;;;;;5365784;26;20023;-73
2024/04/14 11:39:56;;;;;;;45.58;42.75;;;15.90;99.90;;;;;;5384447;26;20003;-76
2024/04/14 11:42:25;;;;;;;51.03;47.88;;;16.10;99.90;;;;;;5386216;26;20006;-75
2024/04/14 11:44:52;;;;;;;48.83;45.80;;;15.80;99.90;;;;;;5370819;26;20050;-74
2024/04/14 11:47:19;;;;;;;47.90;45.10;;;15.70;99.90;;;;;;5382789;26;20014;-74
2024/04/14 11:49:46;;;;;;;46.17;43.55;;;15.80;99.90;;;;;;5377875;26;20004;-74
2024/04/14 11:52:14;;;;;;;56.05;52.65;;;15.90;99.90;;;;;;5365463;26;20058;-75
2024/04/14 11:54:41;;;;;;;48.25;45.22;;;15.90;99.90;;;;;;5379995;26;19999;-73
2024/04/14 11:57:08;;;;;;;48.65;45.63;;;15.80;99.90;;;;;;5320430;26;20459;-76
2024/04/14 11:59:36;;;;;;;49.45;46.35;;;15.80;99.90;;;;;;5326732;26;20020;-74
2024/04/14 12:02:04;;;;;;;51.58;48.47;;;15.70;99.90;;;;;;5350651;26;20019;-74
2024/04/14 12:04:31;;;;;;;46.50;43.65;;;15.50;99.90;;;;;;5346382;26;20127;-74
2024/04/14 12:06:58;;;;;;;34.75;32.50;;;15.50;99.90;;;;;;5339437;26;20051;-73
2024/04/14 12:09:26;;;;;;;50.85;47.50;;;15.40;99.90;;;;;;5335794;26;20456;-74
2024/04/14 12:11:53;;;;;;;51.47;47.83;;;15.30;99.90;;;;;;5350139;26;20010;-74
2024/04/14 12:14:20;;;;;;;53.20;49.50;;;15.60;99.90;;;;;;5312564;26;20631;-74
2024/04/14 12:16:47;;;;;;;47.55;44.80;;;15.90;99.90;;;;;;5340487;26;20012;-74
2024/04/14 12:19:15;;;;;;;47.80;45.08;;;16.00;99.90;;;;;;5343239;26;20051;-74
2024/04/14 12:21:43;;;;;;;47.78;45.13;;;15.70;99.90;;;;;;5335025;26;20564;-75
2024/04/14 12:24:11;;;;;;;46.90;43.90;;;15.40;99.90;;;;;;5342201;26;20518;-74
2024/04/14 12:26:38;;;;;;;49.58;46.28;;;15.20;99.90;;;;;;5329948;26;20419;-73
2024/04/14 12:29:05;;;;;;;50.15;47.17;;;15.20;99.90;;;;;;5337257;26;20000;-73
2024/04/14 12:31:32;;;;;;;49.28;46.83;;;15.30;99.90;;;;;;5342681;26;20007;-75
2024/04/14 12:33:59;;;;;;;49.45;46.70;;;15.30;99.90;;;;;;5347467;26;20008;-73
2024/04/14 12:36:27;;;;;;;47.53;44.60;;;15.10;99.90;;;;;;5369094;26;20036;-74
2024/04/14 12:38:54;;;;;;;47.80;45.17;;;15.20;99.90;;;;;;5325936;26;20468;-74
2024/04/14 12:41:21;;;;;;;47.60;44.67;;;15.20;99.90;;;;;;5313034;26;20009;-76
2024/04/14 12:43:48;;;;;;;50.85;48.13;;;15.20;99.90;;;;;;5340810;26;20129;-73
2024/04/14 12:46:15;;;;;;;43.53;40.72;;;15.00;99.90;;;;;;5345236;26;20015;-75
2024/04/14 12:48:44;;;;;;;50.38;47.25;;;15.40;99.90;;;;;;5341426;26;20431;-74
2024/04/14 12:51:13;;;;;;;54.00;50.70;;;15.20;99.90;;;;;;5309143;26;20029;-75
2024/04/14 12:53:40;;;;;;;48.55;45.70;;;15.40;99.90;;;;;;5359870;26;20008;-74
2024/04/14 12:56:07;;;;;;;49.33;46.55;;;15.40;99.90;;;;;;5363480;26;20015;-74
2024/04/14 12:58:34;;;;;;;54.00;50.47;;;15.50;99.90;;;;;;5350347;26;20011;-75
2024/04/14 13:01:01;;;;;;;51.20;48.10;;;15.50;99.90;;;;;;5356722;26;20009;-75
2024/04/14 13:03:29;;;;;;;51.75;48.60;;;15.70;99.90;;;;;;5343741;26;20025;-75
2024/04/14 13:05:57;;;;;;;55.58;52.30;;;16.10;99.90;;;;;;5357112;26;20014;-74
2024/04/14 13:08:28;;;;;;;53.40;50.08;;;16.20;99.90;;;;;;5356186;26;21058;-74
2024/04/14 13:10:56;;;;;;;55.92;52.47;;;16.30;99.90;;;;;;5344550;26;19995;-74
2024/04/14 13:13:23;;;;;;;50.53;47.58;;;16.30;99.90;;;;;;5343166;26;20023;-76
2024/04/14 13:15:49;;;;;;;47.28;43.90;;;16.30;99.90;;;;;;5353477;26;20991;-74
2024/04/14 13:18:17;;;;;;;46.78;43.85;;;16.20;99.90;;;;;;5333201;26;20005;-75
2024/04/14 13:20:44;;;;;;;56.00;52.60;;;15.90;99.90;;;;;;5345880;26;20001;-76
2024/04/14 13:23:11;;;;;;;56.63;53.42;;;15.60;99.90;;;;;;5351392;26;19996;-76
2024/04/14 13:25:38;;;;;;;51.55;48.53;;;15.70;99.90;;;;;;5348192;26;20591;-74
2024/04/14 13:28:05;;;;;;;54.83;51.67;;;15.80;99.90;;;;;;5342306;26;20039;-75
2024/04/14 13:30:32;;;;;;;48.30;45.65;;;15.90;99.90;;;;;;5354642;26;20087;-76
2024/04/14 13:33:00;;;;;;;52.13;49.28;;;16.00;99.90;;;;;;5334550;26;20109;-76
2024/04/14 13:35:27;;;;;;;55.28;51.80;;;16.00;99.90;;;;;;5334512;26;20283;-76
2024/04/14 13:37:54;;;;;;;54.55;51.35;;;16.00;99.90;;;;;;5333992;26;20004;-75